createdAt,value
2018-10-16T00:02:18.413Z,8.38
2018-10-16T00:04:45.843Z,7.95
2018-10-16T00:07:13.707Z,7.87
2018-10-16T00:09:41.185Z,8.33
2018-10-16T00:12:09.224Z,8.23
2018-10-16T00:14:36.672Z,7.85
2018-10-16T00:17:05.016Z,7.78
2018-10-16T00:19:33.133Z,8.20
2018-10-16T00:22:00.951Z,7.63
2018-10-16T00:24:28.748Z,8.50
2018-10-16T00:26:56.649Z,8.73
2018-10-16T00:29:24.505Z,8.15
2018-10-16T00:31:52.039Z,7.97
2018-10-16T00:34:20.141Z,8.38
2018-10-16T00:36:48.214Z,8.40
2018-10-16T00:39:17.084Z,8.63
2018-10-16T00:41:48.831Z,8.90
2018-10-16T00:44:16.342Z,8.45
2018-10-16T00:46:43.861Z,8.45
2018-10-16T00:49:11.355Z,8.90
2018-10-16T00:51:40.317Z,8.55
2018-10-16T00:54:07.929Z,9.18
2018-10-16T00:56:35.601Z,8.70
2018-10-16T00:59:03.152Z,8.75
2018-10-16T01:01:31.281Z,9.03
2018-10-16T01:04:00.072Z,8.40
2018-10-16T01:06:28.150Z,9.10
2018-10-16T01:08:56.148Z,9.08
2018-10-16T01:11:23.845Z,9.10
2018-10-16T01:13:51.685Z,9.70
2018-10-16T01:16:19.217Z,9.58
2018-10-16T01:18:46.699Z,9.00
2018-10-16T01:21:14.224Z,9.30
2018-10-16T01:23:41.701Z,9.30
2018-10-16T01:26:09.444Z,9.53
2018-10-16T01:28:37.517Z,9.85
2018-10-16T01:31:05.009Z,9.40
2018-10-16T01:33:32.780Z,9.80
2018-10-16T01:36:00.610Z,9.30
2018-10-16T01:38:28.680Z,9.50
2018-10-16T01:40:56.165Z,9.60
2018-10-16T01:43:23.721Z,9.33
2018-10-16T01:45:51.250Z,9.40
2018-10-16T01:48:18.704Z,9.28
2018-10-16T01:50:46.849Z,9.50
2018-10-16T01:53:14.337Z,10.08
2018-10-16T01:55:42.112Z,10.27
2018-10-16T01:58:09.905Z,9.10
2018-10-16T02:00:37.783Z,10.35
2018-10-16T02:03:05.353Z,10.00
2018-10-16T02:05:33.173Z,9.95
2018-10-16T02:08:00.786Z,9.95
2018-10-16T02:10:28.572Z,10.20
2018-10-16T02:12:56.364Z,10.08
2018-10-16T02:15:24.193Z,9.97
2018-10-16T02:17:52.113Z,9.85
2018-10-16T02:20:19.867Z,9.45
2018-10-16T02:22:47.630Z,9.53
2018-10-16T02:25:15.386Z,9.20
2018-10-16T02:27:42.927Z,9.40
2018-10-16T02:30:10.851Z,8.90
2018-10-16T02:32:38.587Z,9.48
2018-10-16T02:35:06.926Z,9.20
2018-10-16T02:37:35.041Z,9.60
2018-10-16T02:40:02.593Z,9.50
2018-10-16T02:42:30.360Z,8.88
2018-10-16T02:44:57.947Z,8.80
2018-10-16T02:47:25.537Z,8.80
2018-10-16T02:49:53.834Z,8.90
2018-10-16T02:52:22.036Z,9.80
2018-10-16T02:54:50.531Z,9.30
2018-10-16T02:57:19.428Z,9.70
2018-10-16T02:59:47.189Z,10.10
2018-10-16T03:02:14.659Z,9.40
2018-10-16T03:04:42.942Z,35.52
2018-10-16T03:07:10.892Z,43.05
2018-10-16T03:09:38.654Z,12.53
2018-10-16T03:12:08.366Z,9.75
2018-10-16T03:14:36.695Z,9.20
2018-10-16T03:17:04.402Z,11.60
2018-10-16T03:19:31.881Z,10.10
2018-10-16T03:21:59.531Z,12.40
2018-10-16T03:24:27.169Z,10.45
2018-10-16T03:26:55.085Z,11.10
2018-10-16T03:29:23.634Z,10.55
2018-10-16T03:31:51.510Z,10.48
2018-10-16T03:34:19.824Z,10.00
2018-10-16T03:36:47.344Z,10.85
2018-10-16T03:39:14.916Z,10.10
2018-10-16T03:41:42.701Z,10.13
2018-10-16T03:44:11.813Z,10.15
2018-10-16T03:46:39.345Z,9.95
2018-10-16T03:49:07.764Z,9.90
2018-10-16T03:51:35.479Z,10.30
2018-10-16T03:54:03.152Z,9.63
2018-10-16T03:56:30.580Z,10.13
2018-10-16T03:58:58.460Z,10.50
2018-10-16T04:01:27.184Z,10.00
2018-10-16T04:03:54.996Z,9.80
2018-10-16T04:06:23.385Z,9.55
2018-10-16T04:08:51.837Z,9.30
2018-10-16T04:11:19.484Z,9.70
2018-10-16T04:13:47.164Z,10.07
2018-10-16T04:16:15.677Z,9.90
2018-10-16T04:18:43.640Z,9.27
2018-10-16T04:21:11.942Z,9.50
2018-10-16T04:23:41.085Z,9.88
2018-10-16T04:26:09.188Z,10.10
2018-10-16T04:28:37.900Z,10.50
2018-10-16T04:31:05.930Z,10.08
2018-10-16T04:33:33.916Z,10.65
2018-10-16T04:36:02.162Z,10.08
2018-10-16T04:38:30.475Z,11.78
2018-10-16T04:40:59.664Z,35.00
2018-10-16T04:43:27.332Z,10.10
2018-10-16T04:45:55.224Z,10.70
2018-10-16T04:48:23.908Z,10.18
2018-10-16T04:50:51.333Z,10.35
2018-10-16T04:53:18.956Z,10.53
2018-10-16T04:55:46.615Z,10.32
2018-10-16T04:58:14.313Z,10.35
2018-10-16T05:00:42.611Z,10.50
2018-10-16T05:03:10.430Z,10.15
2018-10-16T05:05:38.076Z,9.90
2018-10-16T05:08:06.038Z,11.00
2018-10-16T05:10:34.308Z,10.28
2018-10-16T05:13:02.307Z,10.60
2018-10-16T05:15:32.272Z,10.20
2018-10-16T05:18:00.397Z,10.20
2018-10-16T05:20:28.699Z,10.38
2018-10-16T05:22:57.776Z,10.10
2018-10-16T05:25:26.450Z,10.43
2018-10-16T05:27:54.348Z,10.37
2018-10-16T05:30:22.206Z,10.23
2018-10-16T05:32:50.622Z,10.88
2018-10-16T05:35:18.488Z,10.37
2018-10-16T05:37:46.037Z,10.70
2018-10-16T05:40:13.552Z,10.68
2018-10-16T05:42:41.577Z,10.80
2018-10-16T05:45:10.345Z,10.50
2018-10-16T05:47:38.127Z,10.10
2018-10-16T05:50:05.892Z,10.48
2018-10-16T05:52:33.420Z,10.53
2018-10-16T05:55:01.242Z,10.20
2018-10-16T05:57:29.088Z,10.53
2018-10-16T06:00:01.561Z,10.43
2018-10-16T06:02:29.393Z,10.50
2018-10-16T06:04:56.872Z,10.08
2018-10-16T06:07:24.740Z,10.20
2018-10-16T06:09:52.221Z,9.80
2018-10-16T06:12:20.033Z,9.78
2018-10-16T06:14:48.357Z,10.15
2018-10-16T06:17:16.728Z,10.48
2018-10-16T06:19:44.645Z,9.60
2018-10-16T06:22:12.161Z,10.93
2018-10-16T06:24:40.678Z,12.00
2018-10-16T06:27:08.226Z,10.47
2018-10-16T06:29:36.575Z,10.82
2018-10-16T06:32:04.577Z,13.50
2018-10-16T06:34:32.415Z,12.53
2018-10-16T06:37:00.525Z,12.33
2018-10-16T06:39:28.192Z,13.00
2018-10-16T06:41:55.809Z,12.70
2018-10-16T06:44:23.244Z,13.18
2018-10-16T06:46:51.167Z,13.45
2018-10-16T06:49:19.062Z,12.70
2018-10-16T06:51:46.943Z,12.37
2018-10-16T06:54:15.763Z,12.60
2018-10-16T06:56:43.473Z,13.00
2018-10-16T06:59:11.133Z,12.80
2018-10-16T07:01:39.397Z,13.63
2018-10-16T07:04:07.326Z,13.10
2018-10-16T07:06:35.931Z,13.17
2018-10-16T07:09:04.646Z,13.15
2018-10-16T07:11:32.886Z,12.47
2018-10-16T07:14:00.509Z,12.10
2018-10-16T07:16:28.402Z,11.50
2018-10-16T07:18:55.981Z,11.10
2018-10-16T07:21:23.586Z,10.97
2018-10-16T07:23:51.596Z,12.70
2018-10-16T07:26:19.129Z,12.40
2018-10-16T07:28:46.675Z,11.70
2018-10-16T07:31:14.505Z,11.97
2018-10-16T07:33:42.205Z,12.23
2018-10-16T07:36:09.849Z,11.40
2018-10-16T07:38:38.111Z,10.88
2018-10-16T07:41:06.205Z,11.30
2018-10-16T07:43:34.185Z,10.85
2018-10-16T07:46:02.073Z,11.20
2018-10-16T07:48:30.546Z,13.53
2018-10-16T07:50:58.227Z,12.73
2018-10-16T07:53:25.692Z,11.30
2018-10-16T07:55:53.171Z,11.33
2018-10-16T07:58:21.141Z,11.35
2018-10-16T08:00:49.205Z,10.90
2018-10-16T08:03:17.376Z,11.30
2018-10-16T08:05:46.028Z,11.93
2018-10-16T08:08:14.106Z,11.60
2018-10-16T08:10:41.727Z,12.40
2018-10-16T08:13:09.208Z,12.50
2018-10-16T08:15:36.758Z,12.23
2018-10-16T08:18:04.329Z,12.28
2018-10-16T08:20:32.053Z,10.67
2018-10-16T08:22:59.483Z,11.50
2018-10-16T08:25:27.935Z,10.98
2018-10-16T08:27:55.460Z,11.47
2018-10-16T08:30:23.884Z,11.15
2018-10-16T08:32:52.365Z,11.85
2018-10-16T08:35:20.093Z,10.80
2018-10-16T08:37:51.824Z,11.70
2018-10-16T08:40:19.519Z,12.75
2018-10-16T08:43:55.740Z,11.00
2018-10-16T08:46:29.429Z,11.55
2018-10-16T08:49:03.073Z,12.00
2018-10-16T08:51:49.772Z,11.70
2018-10-16T08:54:17.425Z,12.37
2018-10-16T08:56:46.322Z,12.98
2018-10-16T08:59:14.706Z,12.67
2018-10-16T09:01:42.782Z,12.73
2018-10-16T09:04:10.545Z,11.88
2018-10-16T09:06:38.080Z,11.50
2018-10-16T09:09:07.625Z,10.82
2018-10-16T09:11:35.369Z,11.50
2018-10-16T09:14:02.964Z,11.00
2018-10-16T09:16:30.396Z,10.90
2018-10-16T09:18:57.880Z,11.08
2018-10-16T09:21:25.712Z,14.20
2018-10-16T09:23:53.515Z,11.20
2018-10-16T09:26:21.260Z,10.73
2018-10-16T09:28:48.762Z,10.32
2018-10-16T09:31:16.476Z,10.10
2018-10-16T09:33:44.237Z,11.03
2018-10-16T09:36:11.972Z,9.08
2018-10-16T09:38:39.524Z,10.25
2018-10-16T09:41:07.497Z,10.20
2018-10-16T09:43:34.996Z,8.50
2018-10-16T09:46:02.460Z,9.53
2018-10-16T09:48:30.317Z,8.83
2018-10-16T09:50:57.831Z,9.65
2018-10-16T09:53:25.528Z,9.25
2018-10-16T09:55:53.606Z,8.53
2018-10-16T09:58:21.120Z,8.83
2018-10-16T10:00:54.435Z,9.70
2018-10-16T10:03:22.533Z,8.80
2018-10-16T10:05:50.297Z,7.72
2018-10-16T10:08:17.757Z,8.67
2018-10-16T10:10:45.621Z,7.73
2018-10-16T10:13:13.389Z,7.33
2018-10-16T10:15:40.914Z,7.50
2018-10-16T10:18:42.538Z,7.90
2018-10-16T10:21:10.321Z,8.00
2018-10-16T10:23:38.141Z,8.20
2018-10-16T10:26:05.900Z,7.80
2018-10-16T10:28:33.658Z,7.80
2018-10-16T10:31:01.438Z,8.15
2018-10-16T10:33:29.203Z,9.05
2018-10-16T10:35:57.474Z,8.60
2018-10-16T10:38:24.944Z,7.95
2018-10-16T10:40:52.416Z,9.60
2018-10-16T10:43:20.189Z,8.80
2018-10-16T10:45:47.931Z,9.03
2018-10-16T10:48:15.453Z,8.90
2018-10-16T10:50:43.206Z,8.83
2018-10-16T10:53:11.014Z,9.00
2018-10-16T10:55:38.792Z,9.35
2018-10-16T10:58:06.697Z,9.05
2018-10-16T11:00:34.201Z,9.20
2018-10-16T11:03:01.741Z,8.05
2018-10-16T11:05:29.838Z,8.50
2018-10-16T11:07:57.591Z,8.13
2018-10-16T11:10:25.085Z,8.25
2018-10-16T11:12:52.553Z,7.92
2018-10-16T11:15:20.272Z,8.40
2018-10-16T11:17:48.084Z,8.47
2018-10-16T11:20:15.574Z,7.85
2018-10-16T11:22:43.380Z,8.08
2018-10-16T11:25:12.115Z,9.60
2018-10-16T11:27:39.909Z,8.85
2018-10-16T11:30:13.443Z,8.30
2018-10-16T11:32:41.405Z,9.63
2018-10-16T11:35:09.764Z,8.98
2018-10-16T11:37:37.309Z,8.08
2018-10-16T11:40:04.904Z,8.00
2018-10-16T11:42:32.641Z,7.97
2018-10-16T11:45:00.621Z,7.00
2018-10-16T11:47:28.016Z,7.30
2018-10-16T11:49:55.764Z,6.83
2018-10-16T11:52:23.402Z,7.35
2018-10-16T11:54:50.908Z,7.30
2018-10-16T11:57:18.654Z,6.80
2018-10-16T11:59:46.392Z,7.03
2018-10-16T12:02:14.232Z,7.08
2018-10-16T12:04:41.681Z,6.85
2018-10-16T12:07:09.251Z,6.90
2018-10-16T12:09:36.979Z,6.97
2018-10-16T12:12:04.764Z,8.23
2018-10-16T12:14:32.225Z,7.40
2018-10-16T12:19:10.099Z,8.80
2018-10-16T12:21:37.869Z,7.92
2018-10-16T12:24:06.448Z,8.60
2018-10-16T12:26:34.297Z,8.00
2018-10-16T12:29:02.145Z,7.30
2018-10-16T12:31:29.929Z,7.78
2018-10-16T12:33:58.005Z,7.75
2018-10-16T12:36:25.764Z,7.80
2018-10-16T12:38:53.625Z,8.43
2018-10-16T12:41:21.404Z,10.45
2018-10-16T12:43:48.992Z,10.00
2018-10-16T12:46:16.855Z,8.70
2018-10-16T12:48:44.255Z,8.28
2018-10-16T12:51:12.069Z,8.00
2018-10-16T12:53:40.121Z,8.20
2018-10-16T12:56:08.383Z,7.75
2018-10-16T12:58:35.781Z,6.92
2018-10-16T13:01:03.328Z,6.80
2018-10-16T13:03:31.179Z,7.60
2018-10-16T13:05:58.952Z,7.72
2018-10-16T13:08:26.500Z,9.70
2018-10-16T13:10:54.029Z,9.10
2018-10-16T13:13:21.868Z,8.80
2018-10-16T13:15:49.421Z,9.80
2018-10-16T13:18:16.832Z,8.73
2018-10-16T13:20:44.399Z,7.03
2018-10-16T13:23:12.158Z,7.50
2018-10-16T13:25:39.448Z,7.90
2018-10-16T13:28:07.049Z,7.47
2018-10-16T13:30:34.885Z,7.47
2018-10-16T13:33:02.654Z,7.50
2018-10-16T13:35:30.397Z,8.00
2018-10-16T13:37:57.918Z,8.75
2018-10-16T13:40:25.365Z,9.03
2018-10-16T13:42:53.230Z,8.40
2018-10-16T13:45:20.732Z,9.35
2018-10-16T13:47:48.795Z,8.58
2018-10-16T13:50:17.050Z,9.30
2018-10-16T13:52:45.268Z,8.40
2018-10-16T13:55:13.056Z,10.20
2018-10-16T13:57:41.497Z,9.65
2018-10-16T14:00:14.476Z,9.70
2018-10-16T14:02:43.145Z,8.80
2018-10-16T14:05:10.970Z,9.35
2018-10-16T14:07:38.788Z,9.13
2018-10-16T14:10:07.233Z,8.95
2018-10-16T14:12:34.969Z,9.00
2018-10-16T14:15:02.688Z,11.93
2018-10-16T14:17:30.148Z,10.58
2018-10-16T14:19:57.955Z,10.43
2018-10-16T14:22:25.458Z,9.80
2018-10-16T14:24:52.966Z,9.85
2018-10-16T14:27:20.731Z,10.30
2018-10-16T14:29:48.472Z,10.80
2018-10-16T14:32:16.018Z,9.38
2018-10-16T14:34:44.146Z,10.50
2018-10-16T14:37:11.605Z,10.10
2018-10-16T14:39:39.441Z,9.30
2018-10-16T14:42:07.199Z,9.90
2018-10-16T14:44:35.241Z,12.35
2018-10-16T14:47:02.971Z,9.83
2018-10-16T14:49:30.436Z,9.87
2018-10-16T14:51:57.996Z,10.23
2018-10-16T14:54:25.395Z,9.48
2018-10-16T14:56:53.268Z,9.95
2018-10-16T14:59:21.093Z,10.00
2018-10-16T15:01:48.587Z,10.65
2018-10-16T15:04:16.464Z,10.30
2018-10-16T15:06:44.245Z,9.98
2018-10-16T15:09:12.056Z,9.30
2018-10-16T15:11:39.535Z,9.60
2018-10-16T15:14:07.292Z,10.30
2018-10-16T15:16:34.843Z,11.00
2018-10-16T15:19:02.705Z,10.88
2018-10-16T15:21:30.208Z,9.35
2018-10-16T15:23:58.047Z,8.40
2018-10-16T15:26:25.521Z,8.60
2018-10-16T15:28:53.291Z,8.28
2018-10-16T15:31:20.972Z,8.70
2018-10-16T15:33:48.428Z,37.93
2018-10-16T15:36:16.847Z,9.88
2018-10-16T15:38:44.876Z,10.30
2018-10-16T15:41:13.022Z,11.25
2018-10-16T15:43:40.539Z,11.57
2018-10-16T15:46:08.365Z,9.30
2018-10-16T15:48:36.051Z,8.93
2018-10-16T15:51:03.559Z,12.20
2018-10-16T15:53:31.373Z,10.72
2018-10-16T15:55:59.155Z,9.50
2018-10-16T15:58:26.657Z,10.10
2018-10-16T16:00:54.231Z,8.98
2018-10-16T16:03:21.665Z,10.50
2018-10-16T16:05:49.797Z,10.40
2018-10-16T16:08:17.574Z,10.48
2018-10-16T16:10:45.101Z,11.70
2018-10-16T16:13:12.873Z,11.73
2018-10-16T16:15:40.492Z,12.20
2018-10-16T16:18:08.064Z,10.75
2018-10-16T16:20:35.622Z,12.43
2018-10-16T16:23:03.496Z,11.53
2018-10-16T16:25:30.944Z,10.98
2018-10-16T16:27:58.829Z,9.20
2018-10-16T16:30:26.916Z,10.30
2018-10-16T16:32:55.040Z,10.85
2018-10-16T16:35:22.760Z,11.00
2018-10-16T16:37:50.674Z,11.60
2018-10-16T16:40:18.108Z,12.10
2018-10-16T16:42:45.635Z,11.20
2018-10-16T16:45:13.478Z,10.85
2018-10-16T16:47:40.928Z,11.57
2018-10-16T16:50:09.866Z,10.50
2018-10-16T16:52:37.487Z,10.30
2018-10-16T16:55:05.872Z,17.12
2018-10-16T16:57:33.713Z,22.07
2018-10-16T17:00:01.198Z,14.03
2018-10-16T17:02:29.288Z,14.25
2018-10-16T17:04:57.469Z,12.63
2018-10-16T17:07:25.194Z,11.85
2018-10-16T17:09:53.000Z,14.47
2018-10-16T17:12:20.512Z,12.23
2018-10-16T17:14:48.381Z,9.55
2018-10-16T17:17:16.188Z,9.65
2018-10-16T17:19:43.699Z,10.10
2018-10-16T17:22:11.262Z,11.20
2018-10-16T17:24:39.046Z,13.30
2018-10-16T17:27:06.814Z,10.93
2018-10-16T17:29:34.326Z,11.08
2018-10-16T17:32:01.826Z,11.80
2018-10-16T17:34:30.085Z,10.30
2018-10-16T17:36:57.579Z,10.23
2018-10-16T17:39:25.206Z,12.68
2018-10-16T17:41:52.774Z,10.63
2018-10-16T17:44:20.226Z,10.60
2018-10-16T17:46:47.735Z,10.95
2018-10-16T17:49:15.240Z,11.53
2018-10-16T17:51:43.058Z,12.80
2018-10-16T17:54:10.495Z,20.00
2018-10-16T17:56:37.965Z,17.48
2018-10-16T17:59:06.044Z,13.58
2018-10-16T18:01:33.500Z,12.78
2018-10-16T18:04:01.069Z,16.48
2018-10-16T18:06:28.620Z,15.55
2018-10-16T18:08:56.099Z,12.65
2018-10-16T18:11:23.688Z,13.72
2018-10-16T18:13:51.713Z,11.10
2018-10-16T18:16:19.469Z,10.30
2018-10-16T18:18:46.954Z,12.63
2018-10-16T18:21:14.693Z,12.50
2018-10-16T18:23:42.208Z,13.00
2018-10-16T18:26:09.832Z,11.68
2018-10-16T18:28:37.604Z,12.73
2018-10-16T18:31:05.669Z,11.88
2018-10-16T18:33:33.470Z,12.03
2018-10-16T18:36:01.348Z,14.45
2018-10-16T18:38:28.836Z,16.30
2018-10-16T18:40:56.644Z,14.20
2018-10-16T18:43:24.513Z,14.85
2018-10-16T18:45:52.031Z,13.75
2018-10-16T18:48:19.844Z,13.08
2018-10-16T18:50:47.377Z,11.22
2018-10-16T18:53:15.822Z,11.90
2018-10-16T18:55:43.342Z,10.90
2018-10-16T18:58:10.880Z,11.45
2018-10-16T19:00:38.991Z,11.10
2018-10-16T19:03:06.520Z,11.38
2018-10-16T19:05:34.671Z,11.53
2018-10-16T19:08:02.772Z,13.10
2018-10-16T19:10:30.196Z,15.63
2018-10-16T19:13:00.407Z,17.80
2018-10-16T19:15:27.905Z,17.27
2018-10-16T19:17:55.504Z,16.10
2018-10-16T19:20:23.020Z,16.70
2018-10-16T19:22:50.864Z,13.30
2018-10-16T19:25:19.835Z,12.90
2018-10-16T19:27:47.675Z,12.80
2018-10-16T19:30:15.557Z,13.00
2018-10-16T19:32:43.405Z,13.62
2018-10-16T19:35:12.331Z,14.45
2018-10-16T19:37:39.890Z,17.73
2018-10-16T19:40:07.990Z,17.60
2018-10-16T19:42:35.459Z,16.97
2018-10-16T19:45:03.054Z,15.90
2018-10-16T19:47:31.180Z,15.45
2018-10-16T19:49:58.657Z,15.80
2018-10-16T19:52:26.152Z,15.20
2018-10-16T19:54:54.268Z,13.50
2018-10-16T19:57:22.029Z,14.78
2018-10-16T19:59:49.957Z,16.95
2018-10-16T20:02:18.078Z,14.30
2018-10-16T20:04:45.549Z,14.40
2018-10-16T20:07:13.104Z,16.42
2018-10-16T20:09:41.221Z,19.90
2018-10-16T20:12:08.738Z,19.20
2018-10-16T20:14:36.191Z,17.45
2018-10-16T20:17:03.948Z,19.30
2018-10-16T20:19:31.824Z,19.98
2018-10-16T20:21:59.684Z,25.55
2018-10-16T20:24:27.225Z,23.25
2018-10-16T20:26:55.053Z,17.60
2018-10-16T20:29:22.660Z,16.02
2018-10-16T20:31:50.448Z,15.65
2018-10-16T20:34:18.140Z,15.32
2018-10-16T20:36:45.873Z,15.90
2018-10-16T20:39:14.444Z,17.93
2018-10-16T20:41:42.041Z,18.67
2018-10-16T20:44:09.876Z,17.95
2018-10-16T20:46:37.745Z,17.32
2018-10-16T20:49:06.296Z,17.20
2018-10-16T20:51:34.555Z,17.67
2018-10-16T20:54:02.441Z,16.87
2018-10-16T20:56:30.288Z,16.50
2018-10-16T20:58:58.004Z,18.00
2018-10-16T21:01:25.869Z,19.45
2018-10-16T21:03:53.348Z,21.15
2018-10-16T21:06:21.333Z,19.98
2018-10-16T21:08:48.619Z,20.20
2018-10-16T21:11:16.412Z,20.77
2018-10-16T21:13:43.950Z,21.00
2018-10-16T21:16:11.502Z,20.90
2018-10-16T21:18:39.271Z,22.20
2018-10-16T21:21:06.762Z,23.15
2018-10-16T21:23:34.228Z,23.83
2018-10-16T21:26:01.691Z,25.20
2018-10-16T21:28:29.411Z,25.30
2018-10-16T21:30:57.259Z,23.98
2018-10-16T21:33:25.057Z,24.40
2018-10-16T21:35:52.550Z,22.00
2018-10-16T21:38:20.431Z,23.00
2018-10-16T21:40:48.199Z,24.25
2018-10-16T21:43:16.073Z,24.85
2018-10-16T21:45:43.976Z,25.12
2018-10-16T21:48:11.659Z,25.55
2018-10-16T21:50:39.186Z,25.12
2018-10-16T21:53:07.086Z,26.55
2018-10-16T21:55:34.852Z,26.50
2018-10-16T21:58:02.327Z,28.40
2018-10-16T22:00:36.028Z,28.38
2018-10-16T22:03:03.555Z,29.82
2018-10-16T22:05:31.388Z,30.15
2018-10-16T22:07:58.946Z,26.25
2018-10-16T22:10:26.472Z,25.92
2018-10-16T22:12:54.597Z,26.48
2018-10-16T22:15:22.095Z,30.48
2018-10-16T22:17:50.110Z,28.60
2018-10-16T22:20:17.608Z,26.65
2018-10-16T22:22:45.937Z,25.50
2018-10-16T22:25:14.424Z,25.35
2018-10-16T22:27:41.899Z,24.70
2018-10-16T22:30:10.420Z,25.95
2018-10-16T22:32:37.885Z,25.95
2018-10-16T22:35:06.495Z,26.50
2018-10-16T22:37:34.049Z,27.73
2018-10-16T22:40:01.822Z,27.65
2018-10-16T22:42:29.347Z,25.37
2018-10-16T22:44:56.900Z,27.80
2018-10-16T22:47:24.975Z,28.92
2018-10-16T22:49:53.015Z,35.28
2018-10-16T22:52:20.487Z,35.70
2018-10-16T22:54:48.575Z,35.75
2018-10-16T22:57:16.640Z,33.58
2018-10-16T22:59:44.157Z,35.52
2018-10-16T23:02:11.863Z,33.67
2018-10-16T23:04:39.663Z,35.00
2018-10-16T23:07:07.135Z,35.23
2018-10-16T23:09:34.642Z,33.25
2018-10-16T23:12:02.122Z,34.20
2018-10-16T23:14:29.632Z,33.35
2018-10-16T23:16:57.473Z,33.50
2018-10-16T23:19:24.896Z,32.63
2018-10-16T23:21:52.395Z,33.58
2018-10-16T23:24:19.870Z,33.80
2018-10-16T23:26:47.375Z,32.53
2018-10-16T23:29:14.983Z,33.30
2018-10-16T23:31:43.009Z,33.70
2018-10-16T23:34:10.770Z,33.92
2018-10-16T23:36:38.357Z,34.88
2018-10-16T23:39:08.523Z,40.15
2018-10-16T23:41:36.623Z,40.05
2018-10-16T23:44:04.080Z,40.50
2018-10-16T23:46:31.530Z,41.48
2018-10-16T23:48:59.359Z,41.40
2018-10-16T23:51:27.039Z,42.08
2018-10-16T23:53:55.176Z,36.80
2018-10-16T23:56:22.664Z,36.50
2018-10-16T23:58:50.168Z,39.53
